Time;durP1;ratioP1;P1;durP2;ratioP2;P2;SDS_P1;SDS_P2;PMS_P1;PMS_P2;Temp;Humidity;BMP_temperature;BMP_pressure;BME280_temperature;BME280_humidity;BME280_pressure;Samples;Min_cycle;Max_cycle;Signal;HPM_P1;HPM_P2
2022/10/22 00:01:40;;;;;;;13.60;5.53;;;;;;;;;;7390008;19;20065;-74
2022/10/22 00:04:05;;;;;;;7.60;4.55;;;;;;;;;;7391166;19;20004;-75
2022/10/22 00:06:31;;;;;;;8.63;4.30;;;;;;;;;;7391394;19;20009;-72
2022/10/22 00:08:56;;;;;;;7.95;4.32;;;;;;;;;;7390812;19;20013;-74
2022/10/22 00:11:21;;;;;;;9.68;5.00;;;;;;;;;;7389522;19;20019;-75
2022/10/22 00:13:47;;;;;;;10.40;4.47;;;;;;;;;;7391251;19;19999;-75
2022/10/22 00:16:13;;;;;;;9.48;4.85;;;;;;;;;;7391058;19;20326;-74
2022/10/22 00:18:39;;;;;;;9.73;4.93;;;;;;;;;;7391100;19;20058;-73
2022/10/22 00:21:06;;;;;;;13.80;5.35;;;;;;;;;;7389584;19;19998;-76
2022/10/22 00:23:32;;;;;;;12.45;4.68;;;;;;;;;;7389081;19;20011;-73
2022/10/22 00:25:57;;;;;;;15.55;5.88;;;;;;;;;;7388912;19;20525;-74
2022/10/22 00:28:22;;;;;;;11.45;5.30;;;;;;;;;;7391061;19;20018;-74
2022/10/22 00:30:55;;;;;;;11.32;5.05;;;;;;;;;;7388580;19;20693;-74
2022/10/22 00:33:21;;;;;;;8.90;4.70;;;;;;;;;;7389479;19;19998;-73
2022/10/22 00:35:46;;;;;;;11.20;5.20;;;;;;;;;;7390417;19;20397;-76
2022/10/22 00:38:11;;;;;;;10.85;5.28;;;;;;;;;;7390106;19;20006;-74
2022/10/22 00:40:37;;;;;;;10.45;5.03;;;;;;;;;;7387005;19;19995;-74
2022/10/22 00:43:02;;;;;;;8.90;5.05;;;;;;;;;;7389100;19;20001;-74
2022/10/22 00:45:27;;;;;;;11.30;4.97;;;;;;;;;;7388903;19;20012;-74
2022/10/22 00:48:01;;;;;;;13.43;5.10;;;;;;;;;;7389806;19;20006;-75
2022/10/22 00:50:32;;;;;;;10.45;5.03;;;;;;;;;;7390184;19;20519;-74
2022/10/22 00:52:59;;;;;;;11.23;5.10;;;;;;;;;;7388023;19;20002;-74
2022/10/22 00:55:26;;;;;;;12.50;5.45;;;;;;;;;;7389350;19;20464;-75
2022/10/22 00:57:55;;;;;;;9.48;5.10;;;;;;;;;;7389224;19;19998;-74
2022/10/22 01:00:20;;;;;;;13.70;5.25;;;;;;;;;;7385546;19;20006;-74
2022/10/22 01:02:49;;;;;;;15.43;5.03;;;;;;;;;;7387201;19;20020;-74
2022/10/22 01:05:14;;;;;;;11.15;5.20;;;;;;;;;;7388168;19;20007;-74
2022/10/22 01:07:43;;;;;;;10.73;5.50;;;;;;;;;;7387052;19;20005;-74
2022/10/22 01:10:26;;;;;;;11.35;5.38;;;;;;;;;;7387774;19;19999;-74
2022/10/22 01:13:25;;;;;;;11.75;5.15;;;;;;;;;;7387926;19;20031;-74
2022/10/22 01:16:06;;;;;;;11.48;5.70;;;;;;;;;;7388643;19;20010;-75
2022/10/22 01:18:47;;;;;;;10.18;6.13;;;;;;;;;;7388364;19;20003;-74
2022/10/22 01:21:35;;;;;;;11.85;5.50;;;;;;;;;;7387832;19;20137;-75
2022/10/22 01:24:22;;;;;;;11.65;5.45;;;;;;;;;;7386873;19;20003;-74
2022/10/22 01:27:06;;;;;;;13.50;5.70;;;;;;;;;;7388610;19;20026;-75
2022/10/22 01:29:39;;;;;;;10.77;5.88;;;;;;;;;;7387374;19;20343;-74
2022/10/22 01:32:09;;;;;;;13.02;5.80;;;;;;;;;;7386973;19;20011;-74
2022/10/22 01:34:39;;;;;;;16.50;6.15;;;;;;;;;;7388464;19;20009;-75
2022/10/22 01:37:05;;;;;;;11.25;5.82;;;;;;;;;;7388174;19;20079;-74
2022/10/22 01:39:32;;;;;;;11.02;6.10;;;;;;;;;;7389443;19;20338;-73
2022/10/22 01:41:58;;;;;;;12.23;6.25;;;;;;;;;;7386333;19;20013;-75
2022/10/22 01:44:28;;;;;;;12.57;6.22;;;;;;;;;;7385312;19;20013;-73
2022/10/22 01:46:59;;;;;;;11.93;7.43;;;;;;;;;;7387636;19;20066;-74
2022/10/22 01:49:49;;;;;;;11.98;6.40;;;;;;;;;;7387064;19;20010;-74
2022/10/22 01:52:44;;;;;;;12.75;6.82;;;;;;;;;;7386589;19;20010;-74
2022/10/22 01:55:34;;;;;;;11.73;6.72;;;;;;;;;;7387204;19;20006;-73
2022/10/22 01:58:28;;;;;;;12.55;6.40;;;;;;;;;;7390956;19;20006;-74
2022/10/22 02:01:03;;;;;;;13.95;6.50;;;;;;;;;;7387146;19;20003;-73
2022/10/22 02:03:38;;;;;;;14.00;5.80;;;;;;;;;;7387559;19;20002;-73
2022/10/22 02:06:10;;;;;;;15.35;6.45;;;;;;;;;;7385984;19;20026;-73
2022/10/22 02:08:37;;;;;;;11.40;5.97;;;;;;;;;;7385755;19;20787;-72
2022/10/22 02:11:04;;;;;;;9.50;5.38;;;;;;;;;;7390187;19;20002;-73
2022/10/22 02:13:38;;;;;;;9.68;4.97;;;;;;;;;;7394854;19;20002;-75
2022/10/22 02:16:08;;;;;;;13.13;4.45;;;;;;;;;;7395068;19;20021;-74
2022/10/22 02:18:35;;;;;;;10.52;3.72;;;;;;;;;;7394443;19;20003;-75
2022/10/22 02:21:01;;;;;;;8.35;3.60;;;;;;;;;;7393862;19;20066;-75
2022/10/22 02:23:27;;;;;;;8.77;3.63;;;;;;;;;;7394707;19;20074;-75
2022/10/22 02:26:02;;;;;;;6.07;3.22;;;;;;;;;;7392856;19;20007;-73
2022/10/22 02:28:44;;;;;;;7.93;3.50;;;;;;;;;;7394746;19;20002;-73
2022/10/22 02:31:18;;;;;;;7.75;3.38;;;;;;;;;;7394104;19;20430;-74
2022/10/22 02:33:51;;;;;;;8.10;3.75;;;;;;;;;;7394897;19;19998;-74
2022/10/22 02:36:17;;;;;;;8.27;3.63;;;;;;;;;;7392719;19;20018;-74
2022/10/22 02:38:45;;;;;;;11.52;3.75;;;;;;;;;;7392026;19;20490;-74
2022/10/22 02:41:10;;;;;;;7.28;3.95;;;;;;;;;;7392808;19;20460;-75
2022/10/22 02:43:48;;;;;;;11.70;3.55;;;;;;;;;;7392603;19;20019;-74
2022/10/22 02:46:13;;;;;;;8.75;4.10;;;;;;;;;;7394912;19;20006;-74
2022/10/22 02:48:39;;;;;;;6.50;3.67;;;;;;;;;;7393391;19;20031;-75
2022/10/22 02:51:04;;;;;;;7.18;3.72;;;;;;;;;;7390659;19;20075;-73
2022/10/22 02:53:31;;;;;;;11.02;4.03;;;;;;;;;;7392257;19;20007;-74
2022/10/22 02:55:56;;;;;;;9.35;4.95;;;;;;;;;;7393427;19;20003;-76
2022/10/22 02:58:21;;;;;;;7.72;4.32;;;;;;;;;;7393656;19;20008;-73
2022/10/22 03:00:48;;;;;;;10.20;3.70;;;;;;;;;;7389363;19;20257;-73
2022/10/22 03:03:13;;;;;;;10.88;4.30;;;;;;;;;;7392007;19;20022;-74
2022/10/22 03:05:38;;;;;;;10.30;4.75;;;;;;;;;;7390089;19;20401;-74
2022/10/22 03:08:03;;;;;;;10.52;4.72;;;;;;;;;;7391433;19;20060;-72
2022/10/22 03:10:29;;;;;;;12.48;4.22;;;;;;;;;;7388648;19;20007;-74
2022/10/22 03:12:55;;;;;;;7.88;4.00;;;;;;;;;;7391393;19;20023;-75
2022/10/22 03:15:20;;;;;;;7.10;4.13;;;;;;;;;;7393114;19;20077;-74
2022/10/22 03:17:45;;;;;;;11.48;4.68;;;;;;;;;;7391191;19;20002;-74
2022/10/22 03:20:11;;;;;;;7.28;3.80;;;;;;;;;;7388640;19;20032;-75
2022/10/22 03:22:39;;;;;;;6.50;3.83;;;;;;;;;;7389110;19;20413;-75
2022/10/22 03:25:08;;;;;;;7.32;3.15;;;;;;;;;;7390686;19;20003;-74
2022/10/22 03:27:35;;;;;;;7.35;3.45;;;;;;;;;;7392187;19;20024;-74
2022/10/22 03:30:04;;;;;;;8.98;3.03;;;;;;;;;;7388566;19;20082;-73
2022/10/22 03:32:29;;;;;;;7.88;3.20;;;;;;;;;;7388985;19;20034;-74
2022/10/22 03:34:54;;;;;;;8.25;3.40;;;;;;;;;;7391760;19;20003;-73
2022/10/22 03:37:20;;;;;;;9.10;3.60;;;;;;;;;;7391820;19;20066;-74
2022/10/22 03:39:58;;;;;;;8.02;3.53;;;;;;;;;;7386441;19;19998;-74
2022/10/22 03:42:23;;;;;;;5.18;3.47;;;;;;;;;;7390598;19;20005;-74
2022/10/22 03:44:49;;;;;;;6.13;3.63;;;;;;;;;;7390803;19;19999;-75
2022/10/22 03:47:14;;;;;;;8.65;3.90;;;;;;;;;;7391581;19;20036;-75
2022/10/22 03:49:40;;;;;;;7.15;3.55;;;;;;;;;;7390624;19;20026;-75
2022/10/22 03:52:11;;;;;;;9.43;3.80;;;;;;;;;;7388150;19;20555;-74
2022/10/22 03:54:36;;;;;;;;;;;;;;;;;;7390272;19;20460;-74
2022/10/22 03:57:03;;;;;;;7.33;3.23;;;;;;;;;;7391114;19;19930;-74
2022/10/22 03:59:33;;;;;;;8.27;3.08;;;;;;;;;;7388986;19;20586;-75
2022/10/22 04:01:59;;;;;;;7.97;3.20;;;;;;;;;;7389783;19;20010;-76
2022/10/22 04:04:24;;;;;;;8.07;4.13;;;;;;;;;;7390409;19;19999;-74
2022/10/22 04:06:49;;;;;;;7.78;3.30;;;;;;;;;;7390766;19;19995;-72
2022/10/22 04:09:15;;;;;;;11.15;3.38;;;;;;;;;;7389903;19;19999;-74
2022/10/22 04:11:40;;;;;;;8.73;3.50;;;;;;;;;;7387416;19;20006;-74
2022/10/22 04:14:05;;;;;;;7.80;3.33;;;;;;;;;;7390362;19;20023;-74
2022/10/22 04:16:31;;;;;;;8.43;3.20;;;;;;;;;;7390270;19;20003;-73
2022/10/22 04:18:57;;;;;;;5.30;2.92;;;;;;;;;;7387652;19;20502;-75
2022/10/22 04:21:23;;;;;;;7.07;3.30;;;;;;;;;;7389063;19;20028;-73
2022/10/22 04:23:51;;;;;;;10.20;3.80;;;;;;;;;;7393050;19;20439;-75
2022/10/22 04:26:18;;;;;;;9.68;3.25;;;;;;;;;;7392131;19;20002;-75
2022/10/22 04:28:44;;;;;;;6.07;3.40;;;;;;;;;;7394316;19;20022;-76
2022/10/22 04:31:11;;;;;;;6.47;3.22;;;;;;;;;;7389363;19;20011;-73
2022/10/22 04:33:36;;;;;;;7.97;3.40;;;;;;;;;;7390044;19;20476;-75
2022/10/22 04:36:20;;;;;;;7.47;3.25;;;;;;;;;;7390489;19;20007;-77
2022/10/22 04:38:47;;;;;;;10.00;3.25;;;;;;;;;;7232873;19;20006;-73
2022/10/22 04:41:25;;;;;;;8.02;3.47;;;;;;;;;;7392154;19;20002;-76
2022/10/22 04:43:52;;;;;;;5.55;3.45;;;;;;;;;;7391586;19;20019;-75
2022/10/22 04:46:17;;;;;;;8.63;3.67;;;;;;;;;;7391517;19;20006;-75
2022/10/22 04:48:44;;;;;;;6.78;3.08;;;;;;;;;;7391507;19;20006;-74
2022/10/22 04:51:16;;;;;;;7.15;3.55;;;;;;;;;;7386327;19;20082;-75
2022/10/22 04:53:42;;;;;;;9.90;3.38;;;;;;;;;;7385658;19;20367;-73
2022/10/22 04:56:11;;;;;;;7.30;3.45;;;;;;;;;;7387522;19;20007;-74
2022/10/22 04:58:38;;;;;;;18.52;3.40;;;;;;;;;;7388452;19;20656;-73
2022/10/22 05:01:20;;;;;;;5.32;2.92;;;;;;;;;;7390105;19;20031;-72
2022/10/22 05:03:48;;;;;;;5.03;2.90;;;;;;;;;;7390643;19;19995;-74
2022/10/22 05:06:14;;;;;;;8.57;3.03;;;;;;;;;;7391647;19;20022;-72
2022/10/22 05:08:40;;;;;;;7.63;3.13;;;;;;;;;;7393211;19;19994;-73
2022/10/22 05:11:12;;;;;;;4.60;2.63;;;;;;;;;;7391961;19;20002;-72
2022/10/22 05:13:37;;;;;;;5.97;2.97;;;;;;;;;;7392693;19;20040;-74
2022/10/22 05:16:03;;;;;;;6.32;2.90;;;;;;;;;;7392607;19;20002;-72
2022/10/22 05:18:29;;;;;;;4.97;2.55;;;;;;;;;;7392325;19;20095;-73
2022/10/22 05:20:57;;;;;;;4.53;2.35;;;;;;;;;;7390933;19;20001;-73
2022/10/22 05:23:22;;;;;;;6.18;2.47;;;;;;;;;;7392013;19;19998;-74
2022/10/22 05:25:48;;;;;;;4.97;2.00;;;;;;;;;;7390875;19;20114;-73
2022/10/22 05:28:13;;;;;;;8.85;1.90;;;;;;;;;;7390429;19;20491;-73
2022/10/22 05:30:38;;;;;;;3.38;1.77;;;;;;;;;;7388860;19;20083;-73
2022/10/22 05:33:04;;;;;;;3.90;1.70;;;;;;;;;;7387392;19;19994;-73
2022/10/22 05:35:29;;;;;;;6.15;1.90;;;;;;;;;;7389208;19;19998;-73
2022/10/22 05:37:54;;;;;;;2.55;1.55;;;;;;;;;;7388238;19;20010;-74
2022/10/22 05:40:19;;;;;;;3.55;1.50;;;;;;;;;;7387074;19;20003;-72
2022/10/22 05:42:45;;;;;;;5.97;1.67;;;;;;;;;;7390034;19;20002;-73
2022/10/22 05:45:10;;;;;;;3.90;1.50;;;;;;;;;;7385823;19;20062;-74
2022/10/22 05:47:35;;;;;;;4.65;1.60;;;;;;;;;;7391836;19;19999;-73
2022/10/22 05:50:01;;;;;;;3.67;1.50;;;;;;;;;;7386662;19;20003;-74
2022/10/22 05:52:27;;;;;;;3.95;1.50;;;;;;;;;;7386621;19;20002;-73
2022/10/22 05:54:52;;;;;;;3.20;1.50;;;;;;;;;;7387765;19;20077;-72
2022/10/22 05:57:17;;;;;;;6.80;1.77;;;;;;;;;;7391167;19;20106;-74
2022/10/22 05:59:43;;;;;;;3.30;2.08;;;;;;;;;;7388291;19;20444;-72
2022/10/22 06:02:08;;;;;;;5.38;2.10;;;;;;;;;;7389441;19;19998;-74
2022/10/22 06:04:34;;;;;;;2.42;1.90;;;;;;;;;;7384799;19;20013;-73
2022/10/22 06:06:59;;;;;;;6.32;1.90;;;;;;;;;;7385925;19;20036;-72
2022/10/22 06:09:30;;;;;;;9.57;1.92;;;;;;;;;;7386534;19;20027;-73
2022/10/22 06:11:56;;;;;;;4.95;1.92;;;;;;;;;;7384457;19;20002;-73
2022/10/22 06:14:23;;;;;;;2.75;1.60;;;;;;;;;;7390748;19;20001;-73
2022/10/22 06:16:49;;;;;;;3.97;1.50;;;;;;;;;;7376347;19;20030;-73
2022/10/22 06:19:17;;;;;;;5.28;1.60;;;;;;;;;;7384851;19;20054;-75
2022/10/22 06:21:42;;;;;;;9.20;1.70;;;;;;;;;;7382292;19;20488;-73
2022/10/22 06:24:08;;;;;;;3.40;1.70;;;;;;;;;;7383438;19;20490;-72
2022/10/22 06:26:34;;;;;;;2.97;1.55;;;;;;;;;;7380634;19;19999;-73
2022/10/22 06:29:00;;;;;;;3.83;1.52;;;;;;;;;;7382186;19;20006;-73
2022/10/22 06:31:26;;;;;;;3.60;1.30;;;;;;;;;;7381804;19;20070;-72
2022/10/22 06:33:52;;;;;;;5.30;2.17;;;;;;;;;;7382803;19;19995;-74
2022/10/22 06:36:19;;;;;;;4.88;2.83;;;;;;;;;;7385071;19;20019;-74
2022/10/22 06:38:45;;;;;;;2.55;1.60;;;;;;;;;;7384923;19;20002;-76
2022/10/22 06:41:15;;;;;;;2.85;1.48;;;;;;;;;;7384331;19;20010;-74
2022/10/22 06:43:45;;;;;;;2.05;1.33;;;;;;;;;;7386826;19;19995;-74
2022/10/22 06:46:16;;;;;;;4.85;1.60;;;;;;;;;;7383382;19;20011;-74
2022/10/22 06:48:42;;;;;;;3.50;1.52;;;;;;;;;;7385065;19;20002;-74
2022/10/22 06:51:10;;;;;;;2.67;1.45;;;;;;;;;;7382122;19;20439;-74
2022/10/22 06:53:36;;;;;;;4.03;1.70;;;;;;;;;;7385815;19;20572;-76
2022/10/22 06:56:06;;;;;;;3.05;1.40;;;;;;;;;;7384786;19;20002;-74
2022/10/22 06:58:31;;;;;;;4.85;1.70;;;;;;;;;;7386852;19;20066;-72
2022/10/22 07:01:05;;;;;;;3.38;1.77;;;;;;;;;;7392716;19;19998;-72
2022/10/22 07:03:31;;;;;;;2.58;1.55;;;;;;;;;;7393743;19;20009;-73
2022/10/22 07:06:05;;;;;;;3.22;1.45;;;;;;;;;;7391295;19;20078;-73
2022/10/22 07:08:31;;;;;;;2.35;1.27;;;;;;;;;;7392921;19;20006;-75
2022/10/22 07:11:08;;;;;;;8.18;1.58;;;;;;;;;;7392647;19;20062;-74
2022/10/22 07:13:34;;;;;;;3.70;1.45;;;;;;;;;;7392302;19;20009;-74
2022/10/22 07:15:59;;;;;;;4.18;1.45;;;;;;;;;;7391183;19;20002;-74
2022/10/22 07:18:25;;;;;;;2.10;1.20;;;;;;;;;;7392293;19;20616;-74
2022/10/22 07:20:50;;;;;;;3.65;1.33;;;;;;;;;;7391481;19;20443;-73
2022/10/22 07:23:17;;;;;;;7.18;1.55;;;;;;;;;;7385333;19;20003;-75
2022/10/22 07:25:42;;;;;;;1.50;1.40;;;;;;;;;;7390552;19;20003;-75
2022/10/22 07:28:08;;;;;;;1.08;0.95;;;;;;;;;;7391810;19;20366;-75
2022/10/22 07:30:34;;;;;;;2.72;1.17;;;;;;;;;;7387574;19;20010;-75
2022/10/22 07:33:00;;;;;;;1.52;1.30;;;;;;;;;;7390111;19;20009;-75
2022/10/22 07:35:25;;;;;;;1.77;1.00;;;;;;;;;;7391919;19;19999;-74
2022/10/22 07:37:51;;;;;;;0.88;0.80;;;;;;;;;;7392349;19;19994;-74
2022/10/22 07:40:16;;;;;;;4.25;1.25;;;;;;;;;;7390487;19;20019;-74
2022/10/22 07:42:41;;;;;;;1.17;1.00;;;;;;;;;;7390160;19;20341;-75
2022/10/22 07:45:07;;;;;;;3.05;1.13;;;;;;;;;;7388556;19;20019;-73
2022/10/22 07:47:32;;;;;;;2.50;1.00;;;;;;;;;;7386833;19;20082;-75
2022/10/22 07:49:58;;;;;;;1.20;1.10;;;;;;;;;;7393560;19;20002;-74
2022/10/22 07:52:23;;;;;;;2.95;1.10;;;;;;;;;;7387093;19;20003;-75
2022/10/22 07:54:48;;;;;;;1.95;1.23;;;;;;;;;;7390728;19;20006;-74
2022/10/22 07:57:14;;;;;;;2.05;1.23;;;;;;;;;;7390511;19;20002;-74
2022/10/22 07:59:39;;;;;;;2.13;1.17;;;;;;;;;;7389592;19;20310;-75
2022/10/22 08:02:04;;;;;;;3.35;1.10;;;;;;;;;;7389453;19;20020;-73
2022/10/22 08:04:30;;;;;;;5.07;1.25;;;;;;;;;;7390909;19;20468;-75
2022/10/22 08:06:55;;;;;;;1.73;1.10;;;;;;;;;;7390893;19;20002;-74
2022/10/22 08:09:20;;;;;;;2.00;0.98;;;;;;;;;;7389059;19;20005;-74
2022/10/22 08:11:46;;;;;;;4.07;1.38;;;;;;;;;;7389122;19;20456;-73
2022/10/22 08:14:11;;;;;;;3.60;0.95;;;;;;;;;;7390660;19;20051;-77
2022/10/22 08:16:37;;;;;;;3.38;1.13;;;;;;;;;;7390462;19;20082;-75
2022/10/22 08:19:02;;;;;;;4.30;1.10;;;;;;;;;;7389467;19;20020;-76
2022/10/22 08:21:28;;;;;;;1.02;0.90;;;;;;;;;;7388552;19;20012;-75
2022/10/22 08:23:53;;;;;;;1.98;0.88;;;;;;;;;;7387734;19;20094;-76
2022/10/22 08:26:18;;;;;;;1.30;0.80;;;;;;;;;;7388074;19;20107;-76
2022/10/22 08:28:44;;;;;;;0.90;0.80;;;;;;;;;;7389390;19;20006;-76
2022/10/22 08:31:09;;;;;;;2.90;0.80;;;;;;;;;;7386730;19;20281;-75
2022/10/22 08:33:35;;;;;;;1.25;0.82;;;;;;;;;;7390453;19;20010;-77
2022/10/22 08:36:01;;;;;;;5.57;2.55;;;;;;;;;;7388573;19;19999;-75
2022/10/22 08:38:26;;;;;;;1.70;0.85;;;;;;;;;;7389831;19;20003;-76
2022/10/22 08:40:55;;;;;;;1.20;0.90;;;;;;;;;;7387866;19;20018;-74
2022/10/22 08:43:34;;;;;;;2.85;1.02;;;;;;;;;;7388146;19;19999;-75
2022/10/22 08:46:24;;;;;;;1.20;0.82;;;;;;;;;;7392871;19;20086;-76
2022/10/22 08:48:52;;;;;;;3.33;1.38;;;;;;;;;;7389009;19;20009;-78
2022/10/22 08:51:22;;;;;;;2.40;0.88;;;;;;;;;;7388049;19;20360;-75
2022/10/22 08:54:10;;;;;;;3.58;1.10;;;;;;;;;;7389463;19;20395;-75
2022/10/22 08:56:36;;;;;;;0.82;0.73;;;;;;;;;;7388021;19;20010;-76
2022/10/22 08:59:15;;;;;;;2.78;1.00;;;;;;;;;;7388930;19;20019;-76
2022/10/22 09:01:45;;;;;;;5.38;0.93;;;;;;;;;;7386258;19;20002;-75
2022/10/22 09:04:25;;;;;;;6.18;1.70;;;;;;;;;;7390494;19;20369;-77
2022/10/22 09:06:56;;;;;;;7.60;3.87;;;;;;;;;;7390321;19;20006;-75
2022/10/22 09:09:25;;;;;;;3.90;1.38;;;;;;;;;;7390061;19;20276;-75
2022/10/22 09:12:01;;;;;;;1.13;0.70;;;;;;;;;;7388932;19;20345;-74
2022/10/22 09:14:28;;;;;;;3.03;1.20;;;;;;;;;;7390953;19;19994;-76
2022/10/22 09:17:19;;;;;;;2.25;1.30;;;;;;;;;;7387590;19;20006;-77
2022/10/22 09:20:22;;;;;;;3.90;1.20;;;;;;;;;;7385708;19;20006;-75
2022/10/22 09:23:03;;;;;;;10.93;6.25;;;;;;;;;;7391266;19;20076;-75
2022/10/22 09:25:32;;;;;;;1.75;1.15;;;;;;;;;;7400549;19;20006;-76
2022/10/22 09:27:57;;;;;;;1.13;1.05;;;;;;;;;;7392456;19;20028;-76
2022/10/22 09:30:27;;;;;;;5.93;0.90;;;;;;;;;;7387748;19;19998;-76
2022/10/22 09:33:12;;;;;;;1.20;0.85;;;;;;;;;;7386725;19;19999;-76
2022/10/22 09:35:55;;;;;;;3.22;0.70;;;;;;;;;;7387945;19;20006;-76
2022/10/22 09:38:25;;;;;;;1.02;0.90;;;;;;;;;;7388427;19;20002;-76
2022/10/22 09:40:53;;;;;;;;;;;;;;;;;;7387164;19;20003;-77
2022/10/22 09:43:18;;;;;;;5.00;1.65;;;;;;;;;;7390197;19;19915;-76
2022/10/22 09:45:45;;;;;;;7.38;4.28;;;;;;;;;;7385043;19;20003;-75
2022/10/22 09:48:14;;;;;;;2.47;1.88;;;;;;;;;;7388624;19;20389;-75
2022/10/22 09:50:55;;;;;;;3.22;1.80;;;;;;;;;;7385878;19;20018;-75
2022/10/22 09:53:41;;;;;;;11.13;6.53;;;;;;;;;;7386513;19;20069;-76
2022/10/22 09:59:32;;;;;;;3.17;1.48;;;;;;;;;;7386458;19;20029;-77
2022/10/22 10:02:22;;;;;;;4.25;1.30;;;;;;;;;;7385381;19;20003;-77
2022/10/22 10:04:53;;;;;;;4.93;1.48;;;;;;;;;;7383797;19;19995;-76
2022/10/22 10:07:24;;;;;;;1.60;1.50;;;;;;;;;;7385881;19;20035;-77
2022/10/22 10:09:52;;;;;;;3.42;1.70;;;;;;;;;;7385566;19;20333;-77
2022/10/22 10:12:17;;;;;;;2.13;0.82;;;;;;;;;;7387480;19;20009;-76
2022/10/22 10:14:58;;;;;;;1.37;0.90;;;;;;;;;;7389992;19;20464;-76
2022/10/22 10:17:51;;;;;;;3.15;1.10;;;;;;;;;;7390259;19;20278;-79
2022/10/22 10:20:28;;;;;;;3.97;1.00;;;;;;;;;;7383018;19;20078;-75
2022/10/22 10:23:07;;;;;;;1.48;1.10;;;;;;;;;;7382608;19;20369;-76
2022/10/22 10:25:56;;;;;;;1.95;1.05;;;;;;;;;;7381214;19;20473;-76
2022/10/22 10:28:47;;;;;;;3.92;1.08;;;;;;;;;;7382891;19;20441;-76
2022/10/22 10:31:37;;;;;;;2.47;1.10;;;;;;;;;;7384970;19;20006;-78
2022/10/22 10:34:45;;;;;;;3.78;1.10;;;;;;;;;;7389328;19;20002;-76
2022/10/22 10:37:31;;;;;;;1.80;1.10;;;;;;;;;;7394357;19;20045;-82
2022/10/22 10:40:24;;;;;;;2.90;0.98;;;;;;;;;;7389309;19;20006;-78
2022/10/22 10:43:30;;;;;;;2.75;1.00;;;;;;;;;;7390359;19;20600;-75
2022/10/22 10:46:15;;;;;;;2.35;1.17;;;;;;;;;;7388014;19;20011;-74
2022/10/22 10:48:58;;;;;;;7.60;1.15;;;;;;;;;;7390605;19;20395;-75
2022/10/22 10:51:42;;;;;;;3.00;1.00;;;;;;;;;;7387885;19;20018;-76
2022/10/22 10:54:30;;;;;;;4.10;1.08;;;;;;;;;;7392885;19;19998;-75
2022/10/22 10:57:08;;;;;;;2.80;1.08;;;;;;;;;;7389261;19;20002;-77
2022/10/22 10:59:49;;;;;;;3.28;1.25;;;;;;;;;;7389211;19;20006;-76
2022/10/22 11:02:46;;;;;;;2.70;1.30;;;;;;;;;;7391052;19;20026;-76
2022/10/22 11:05:26;;;;;;;4.93;1.02;;;;;;;;;;7386939;19;20010;-76
2022/10/22 11:08:00;;;;;;;1.95;1.10;;;;;;;;;;7392686;19;20006;-76
2022/10/22 11:10:47;;;;;;;2.95;1.20;;;;;;;;;;7387493;19;20076;-76
2022/10/22 11:13:37;;;;;;;3.47;1.33;;;;;;;;;;7388151;19;20369;-76
2022/10/22 11:16:05;;;;;;;2.90;1.00;;;;;;;;;;7388659;19;20021;-76
2022/10/22 11:18:40;;;;;;;4.18;1.08;;;;;;;;;;7390576;19;20007;-76
2022/10/22 11:21:09;;;;;;;5.15;1.10;;;;;;;;;;7391942;19;20515;-76
2022/10/22 11:23:43;;;;;;;2.60;0.90;;;;;;;;;;7393189;19;20012;-76
2022/10/22 11:26:17;;;;;;;3.50;1.02;;;;;;;;;;7389299;19;20182;-77
2022/10/22 11:28:48;;;;;;;2.03;0.90;;;;;;;;;;7392570;19;19995;-75
2022/10/22 11:31:16;;;;;;;4.32;1.10;;;;;;;;;;7391695;19;20003;-76
2022/10/22 11:33:51;;;;;;;3.15;1.20;;;;;;;;;;7393162;19;19999;-77
2022/10/22 11:36:22;;;;;;;4.78;1.00;;;;;;;;;;7392983;19;20062;-77
2022/10/22 11:38:48;;;;;;;2.55;0.98;;;;;;;;;;7392133;19;20040;-77
2022/10/22 11:41:17;;;;;;;4.20;1.20;;;;;;;;;;7389903;19;20691;-77
2022/10/22 11:44:08;;;;;;;2.88;0.98;;;;;;;;;;7391029;19;20003;-75
2022/10/22 11:46:43;;;;;;;;;;;;;;;;;;7390991;19;20036;-74
2022/10/22 11:49:11;;;;;;;4.90;1.08;;;;;;;;;;7391108;19;19918;-77
2022/10/22 11:51:39;;;;;;;3.83;1.00;;;;;;;;;;7390199;19;20488;-77
2022/10/22 11:54:33;;;;;;;5.53;1.35;;;;;;;;;;7392445;19;20683;-77
2022/10/22 11:57:35;;;;;;;1.83;0.90;;;;;;;;;;7391770;19;19998;-77
2022/10/22 12:00:10;;;;;;;6.18;1.23;;;;;;;;;;7390225;19;20014;-76
2022/10/22 12:02:45;;;;;;;3.33;1.27;;;;;;;;;;7390528;19;20003;-78
2022/10/22 12:05:38;;;;;;;3.78;1.10;;;;;;;;;;7391091;19;20010;-75
2022/10/22 12:08:09;;;;;;;2.55;1.08;;;;;;;;;;7389410;19;19999;-77
2022/10/22 12:10:49;;;;;;;3.53;0.88;;;;;;;;;;7389553;19;20006;-75
2022/10/22 12:13:22;;;;;;;2.53;1.00;;;;;;;;;;7389483;19;20040;-76
2022/10/22 12:15:52;;;;;;;3.05;0.95;;;;;;;;;;7391000;19;20015;-75
2022/10/22 12:18:17;;;;;;;5.00;1.35;;;;;;;;;;7389533;19;20074;-76
2022/10/22 12:20:53;;;;;;;2.60;1.10;;;;;;;;;;7387968;19;20536;-75
2022/10/22 12:23:23;;;;;;;4.43;1.20;;;;;;;;;;7388918;19;20058;-77
2022/10/22 12:25:48;;;;;;;2.90;1.10;;;;;;;;;;7386104;19;20393;-76
2022/10/22 12:28:15;;;;;;;2.50;1.02;;;;;;;;;;7390675;19;20006;-76
2022/10/22 12:30:40;;;;;;;4.40;1.25;;;;;;;;;;7389595;19;20139;-76
2022/10/22 12:33:22;;;;;;;5.22;1.65;;;;;;;;;;7392490;19;20301;-77
2022/10/22 12:35:51;;;;;;;3.28;1.15;;;;;;;;;;7392589;19;20002;-79
2022/10/22 12:38:26;;;;;;;3.53;1.23;;;;;;;;;;7379540;19;20021;-75
2022/10/22 12:40:55;;;;;;;1.88;0.93;;;;;;;;;;7384575;19;20267;-77
2022/10/22 12:43:28;;;;;;;4.18;1.45;;;;;;;;;;7384975;19;20009;-78
2022/10/22 12:45:56;;;;;;;3.05;1.08;;;;;;;;;;7388237;19;19999;-80
2022/10/22 12:48:29;;;;;;;4.35;1.23;;;;;;;;;;7386380;19;20496;-77
2022/10/22 12:50:58;;;;;;;4.30;1.20;;;;;;;;;;7385716;19;20342;-79
2022/10/22 12:53:28;;;;;;;1.85;1.08;;;;;;;;;;7383738;19;20010;-78
2022/10/22 12:55:58;;;;;;;2.47;1.08;;;;;;;;;;7385134;19;19995;-77
2022/10/22 12:58:32;;;;;;;4.13;1.40;;;;;;;;;;7386909;19;20005;-75
2022/10/22 13:01:01;;;;;;;6.68;1.58;;;;;;;;;;7386647;19;20019;-78
2022/10/22 13:03:38;;;;;;;5.43;1.40;;;;;;;;;;7387620;19;20010;-81
2022/10/22 13:06:17;;;;;;;5.70;1.50;;;;;;;;;;7386284;19;20002;-78
2022/10/22 13:08:42;;;;;;;5.43;1.58;;;;;;;;;;7388145;19;20006;-78
2022/10/22 13:11:10;;;;;;;4.80;1.20;;;;;;;;;;7388073;19;20050;-74
2022/10/22 13:13:35;;;;;;;4.20;1.33;;;;;;;;;;7388019;19;20003;-76
2022/10/22 13:16:14;;;;;;;4.33;1.30;;;;;;;;;;7391208;19;20090;-77
2022/10/22 13:18:39;;;;;;;3.72;1.38;;;;;;;;;;7387836;19;20255;-76
2022/10/22 13:21:05;;;;;;;3.83;1.40;;;;;;;;;;7391115;19;20031;-74
2022/10/22 13:23:32;;;;;;;4.93;1.85;;;;;;;;;;7392315;19;20014;-74
2022/10/22 13:26:13;;;;;;;5.68;1.58;;;;;;;;;;7388938;19;19998;-74
2022/10/22 13:28:39;;;;;;;5.75;1.38;;;;;;;;;;7389410;19;20370;-74
2022/10/22 13:31:15;;;;;;;4.53;1.52;;;;;;;;;;7387218;19;20002;-75
2022/10/22 13:33:44;;;;;;;4.03;1.30;;;;;;;;;;7384932;19;20006;-75
2022/10/22 13:36:16;;;;;;;4.20;1.50;;;;;;;;;;7392644;19;20360;-75
2022/10/22 13:38:43;;;;;;;4.82;1.40;;;;;;;;;;7388082;19;20014;-73
2022/10/22 13:41:22;;;;;;;4.32;1.25;;;;;;;;;;7387114;19;20104;-75
2022/10/22 13:43:47;;;;;;;5.18;1.60;;;;;;;;;;7390413;19;20011;-75
2022/10/22 13:46:13;;;;;;;4.03;1.25;;;;;;;;;;7390944;19;20070;-74
2022/10/22 13:48:39;;;;;;;3.97;1.60;;;;;;;;;;7391396;19;20006;-75
2022/10/22 13:51:13;;;;;;;5.35;1.20;;;;;;;;;;7387266;19;20679;-73
2022/10/22 13:53:38;;;;;;;5.88;1.40;;;;;;;;;;7387942;19;19998;-73
2022/10/22 13:56:04;;;;;;;5.45;1.25;;;;;;;;;;7387705;19;20377;-74
2022/10/22 13:58:29;;;;;;;5.70;1.45;;;;;;;;;;7390762;19;20070;-74
2022/10/22 14:00:57;;;;;;;6.68;1.48;;;;;;;;;;7387184;19;20002;-73
2022/10/22 14:03:28;;;;;;;6.55;1.52;;;;;;;;;;7386640;19;20005;-74
2022/10/22 14:05:53;;;;;;;;;;;;;;;;;;7390002;19;20014;-75
2022/10/22 14:08:21;;;;;;;4.65;1.25;;;;;;;;;;7392935;19;19915;-74
2022/10/22 14:10:46;;;;;;;4.93;1.42;;;;;;;;;;7394988;19;20017;-74
2022/10/22 14:13:13;;;;;;;4.80;1.30;;;;;;;;;;7394486;19;20003;-72
2022/10/22 14:15:39;;;;;;;6.88;1.38;;;;;;;;;;7386941;19;20719;-77
2022/10/22 14:18:06;;;;;;;4.90;1.33;;;;;;;;;;7396530;19;20023;-76
2022/10/22 14:20:38;;;;;;;8.40;1.58;;;;;;;;;;7394194;19;20002;-76
2022/10/22 14:23:16;;;;;;;5.88;1.50;;;;;;;;;;7396746;19;19998;-74
2022/10/22 14:25:42;;;;;;;6.80;1.30;;;;;;;;;;7390299;19;19998;-76
2022/10/22 14:28:11;;;;;;;4.22;1.17;;;;;;;;;;7395611;19;20569;-82
2022/10/22 14:30:37;;;;;;;4.88;1.35;;;;;;;;;;7385814;19;19999;-82
2022/10/22 14:33:12;;;;;;;7.50;1.60;;;;;;;;;;7388007;19;20512;-79
2022/10/22 14:35:37;;;;;;;3.80;1.30;;;;;;;;;;7388440;19;19999;-81
2022/10/22 14:38:02;;;;;;;3.72;1.10;;;;;;;;;;7390315;19;20027;-81
2022/10/22 14:40:27;;;;;;;4.05;1.20;;;;;;;;;;7387437;19;20003;-80
2022/10/22 14:42:53;;;;;;;6.47;1.60;;;;;;;;;;7390488;19;20143;-79
2022/10/22 14:45:24;;;;;;;4.90;1.45;;;;;;;;;;7391491;19;20006;-80
2022/10/22 14:47:50;;;;;;;6.85;1.42;;;;;;;;;;7395181;19;20003;-81
2022/10/22 14:50:17;;;;;;;2.95;1.13;;;;;;;;;;7388632;19;20031;-81
2022/10/22 14:52:43;;;;;;;5.68;1.23;;;;;;;;;;7391094;19;20104;-80
2022/10/22 14:55:10;;;;;;;5.53;1.58;;;;;;;;;;7394720;19;20562;-79
2022/10/22 14:57:37;;;;;;;6.15;1.50;;;;;;;;;;7394995;19;19999;-77
2022/10/22 15:00:04;;;;;;;4.40;1.27;;;;;;;;;;7394900;19;20003;-78
2022/10/22 15:02:30;;;;;;;3.53;1.13;;;;;;;;;;7393330;19;20027;-77
2022/10/22 15:04:55;;;;;;;5.50;1.33;;;;;;;;;;7394773;19;19999;-78
2022/10/22 15:07:20;;;;;;;3.45;1.40;;;;;;;;;;7396950;19;20006;-78